createdAt,value
2023-09-06T00:00:53.364Z,19.50
2023-09-06T00:01:54.272Z,19.46
2023-09-06T00:02:54.324Z,19.44
2023-09-06T00:03:54.328Z,19.50
2023-09-06T00:04:54.327Z,19.47
2023-09-06T00:05:54.214Z,19.41
2023-09-06T00:06:54.227Z,19.33
2023-09-06T00:07:54.176Z,19.23
2023-09-06T00:08:54.163Z,19.16
2023-09-06T00:09:54.170Z,19.10
2023-09-06T00:10:54.148Z,19.02
2023-09-06T00:11:54.175Z,18.99
2023-09-06T00:12:54.119Z,18.95
2023-09-06T00:13:54.105Z,18.91
2023-09-06T00:14:54.084Z,18.90
2023-09-06T00:15:54.162Z,18.90
2023-09-06T00:16:54.080Z,18.84
2023-09-06T00:17:54.100Z,18.82
2023-09-06T00:18:54.077Z,18.82
2023-09-06T00:19:54.025Z,18.76
2023-09-06T00:20:54.020Z,18.73
2023-09-06T00:21:53.997Z,18.70
2023-09-06T00:22:53.980Z,18.72
2023-09-06T00:23:53.987Z,18.73
2023-09-06T00:24:54.037Z,18.76
2023-09-06T00:25:53.941Z,18.73
2023-09-06T00:26:53.968Z,18.70
2023-09-06T00:27:54.027Z,18.70
2023-09-06T00:28:53.911Z,18.73
2023-09-06T00:29:53.903Z,18.70
2023-09-06T00:30:54.012Z,18.72
2023-09-06T00:31:53.921Z,18.75
2023-09-06T00:32:53.957Z,18.80
2023-09-06T00:33:53.870Z,18.90
2023-09-06T00:34:53.830Z,19.06
2023-09-06T00:35:53.833Z,19.28
2023-09-06T00:36:53.854Z,19.43
2023-09-06T00:37:53.792Z,19.54
2023-09-06T00:38:53.783Z,19.51
2023-09-06T00:39:53.804Z,19.44
2023-09-06T00:40:53.760Z,19.39
2023-09-06T00:41:53.761Z,19.29
2023-09-06T00:42:53.792Z,19.22
2023-09-06T00:43:53.737Z,19.19
2023-09-06T00:44:53.694Z,19.18
2023-09-06T00:45:53.716Z,19.11
2023-09-06T00:46:53.722Z,19.10
2023-09-06T00:47:53.737Z,19.10
2023-09-06T00:48:53.705Z,19.08
2023-09-06T00:49:53.639Z,19.10
2023-09-06T00:50:53.633Z,19.16
2023-09-06T00:51:53.653Z,19.21
2023-09-06T00:52:53.638Z,19.23
2023-09-06T00:53:53.608Z,19.22
2023-09-06T00:54:53.598Z,19.22
2023-09-06T00:55:53.575Z,19.16
2023-09-06T00:56:53.557Z,19.13
2023-09-06T00:57:53.619Z,19.10
2023-09-06T00:58:53.517Z,19.02
2023-09-06T00:59:53.528Z,18.95
2023-09-06T01:00:53.551Z,18.90
2023-09-06T01:01:53.679Z,18.85
2023-09-06T01:02:53.570Z,18.81
2023-09-06T01:03:53.553Z,18.82
2023-09-06T01:04:53.451Z,18.75
2023-09-06T01:05:53.467Z,18.73
2023-09-06T01:06:53.457Z,18.72
2023-09-06T01:07:53.420Z,18.69
2023-09-06T01:08:53.496Z,18.60
2023-09-06T01:09:53.414Z,18.55
2023-09-06T01:10:53.375Z,18.45
2023-09-06T01:11:53.394Z,18.37
2023-09-06T01:12:53.365Z,18.33
2023-09-06T01:13:53.339Z,18.25
2023-09-06T01:14:53.330Z,18.20
2023-09-06T01:15:53.415Z,18.18
2023-09-06T01:16:53.421Z,18.20
2023-09-06T01:17:53.371Z,18.20
2023-09-06T01:18:53.327Z,18.18
2023-09-06T01:19:53.271Z,18.18
2023-09-06T01:20:53.283Z,18.17
2023-09-06T01:21:53.247Z,18.11
2023-09-06T01:22:53.223Z,18.12
2023-09-06T01:23:53.230Z,18.14
2023-09-06T01:24:53.209Z,18.20
2023-09-06T01:25:53.191Z,18.18
2023-09-06T01:26:53.166Z,18.21
2023-09-06T01:27:53.254Z,18.23
2023-09-06T01:28:53.152Z,18.26
2023-09-06T01:29:53.155Z,18.29
2023-09-06T01:30:53.328Z,18.33
2023-09-06T01:31:53.240Z,18.35
2023-09-06T01:32:53.190Z,18.36
2023-09-06T01:33:53.131Z,18.39
2023-09-06T01:34:53.083Z,18.37
2023-09-06T01:35:53.072Z,18.44
2023-09-06T01:36:53.081Z,18.51
2023-09-06T01:37:53.033Z,18.54
2023-09-06T01:38:53.014Z,18.55
2023-09-06T01:39:53.043Z,18.54
2023-09-06T01:40:53.012Z,18.51
2023-09-06T01:41:52.993Z,18.45
2023-09-06T01:42:52.981Z,18.37
2023-09-06T01:43:52.953Z,18.36
2023-09-06T01:44:52.998Z,18.32
2023-09-06T01:45:53.376Z,18.29
2023-09-06T01:46:53.011Z,18.29
2023-09-06T01:47:52.996Z,18.23
2023-09-06T01:48:52.967Z,18.20
2023-09-06T01:49:52.897Z,18.21
2023-09-06T01:50:52.882Z,18.14
2023-09-06T01:51:52.901Z,18.11
2023-09-06T01:52:52.848Z,18.10
2023-09-06T01:53:52.848Z,17.99
2023-09-06T01:54:52.902Z,17.99
2023-09-06T01:55:52.815Z,17.93
2023-09-06T01:56:52.811Z,17.89
2023-09-06T01:57:52.944Z,17.84
2023-09-06T01:58:52.781Z,17.82
2023-09-06T01:59:52.786Z,17.81
2023-09-06T02:00:52.790Z,17.79
2023-09-06T02:01:52.787Z,17.84
2023-09-06T02:02:52.769Z,17.81
2023-09-06T02:03:52.835Z,17.82
2023-09-06T02:04:52.717Z,17.86
2023-09-06T02:05:52.721Z,17.86
2023-09-06T02:06:52.679Z,17.86
2023-09-06T02:07:52.668Z,17.82
2023-09-06T02:08:52.680Z,17.86
2023-09-06T02:09:52.666Z,17.89
2023-09-06T02:10:52.645Z,17.90
2023-09-06T02:11:52.617Z,17.92
2023-09-06T02:12:52.732Z,17.93
2023-09-06T02:13:52.584Z,17.90
2023-09-06T02:14:52.580Z,17.87
2023-09-06T02:15:52.618Z,17.82
2023-09-06T02:16:52.565Z,17.79
2023-09-06T02:17:52.658Z,17.79
2023-09-06T02:18:52.617Z,17.78
2023-09-06T02:19:52.512Z,17.79
2023-09-06T02:20:52.499Z,17.79
2023-09-06T02:21:52.517Z,17.77
2023-09-06T02:22:52.465Z,17.79
2023-09-06T02:23:52.466Z,17.78
2023-09-06T02:24:52.491Z,17.77
2023-09-06T02:25:52.435Z,17.77
2023-09-06T02:26:52.413Z,17.78
2023-09-06T02:27:52.484Z,17.75
2023-09-06T02:28:52.394Z,17.75
2023-09-06T02:29:52.407Z,17.75
2023-09-06T02:30:52.394Z,17.74
2023-09-06T02:31:52.447Z,17.71
2023-09-06T02:32:52.383Z,17.71
2023-09-06T02:33:52.344Z,17.71
2023-09-06T02:34:52.332Z,17.68
2023-09-06T02:35:52.331Z,17.68
2023-09-06T02:36:52.379Z,17.63
2023-09-06T02:37:52.286Z,17.66
2023-09-06T02:38:52.285Z,17.66
2023-09-06T02:39:52.260Z,17.71
2023-09-06T02:40:52.242Z,17.75
2023-09-06T02:41:52.254Z,17.77
2023-09-06T02:42:52.446Z,17.81
2023-09-06T02:43:52.233Z,17.84
2023-09-06T02:44:52.219Z,17.82
2023-09-06T02:45:52.200Z,17.92
2023-09-06T02:46:52.239Z,17.92
2023-09-06T02:47:52.596Z,17.96
2023-09-06T02:48:58.160Z,18.00
2023-09-06T02:49:52.156Z,18.08
2023-09-06T02:50:52.168Z,18.25
2023-09-06T02:51:52.108Z,18.33
2023-09-06T02:53:02.122Z,18.33
2023-09-06T02:53:52.082Z,18.30
2023-09-06T02:54:52.177Z,18.30
2023-09-06T02:55:52.065Z,18.25
2023-09-06T02:56:58.096Z,18.18
2023-09-06T02:57:52.102Z,18.17
2023-09-06T02:58:52.026Z,18.12
2023-09-06T02:59:52.027Z,18.15
2023-09-06T03:00:52.093Z,18.14
2023-09-06T03:01:52.075Z,18.20
2023-09-06T03:02:52.064Z,18.20
2023-09-06T03:03:52.087Z,18.15
2023-09-06T03:04:51.967Z,18.14
2023-09-06T03:05:51.942Z,18.11
2023-09-06T03:06:51.975Z,18.07
2023-09-06T03:07:51.955Z,17.97
2023-09-06T03:08:51.917Z,17.93
2023-09-06T03:09:51.965Z,17.90
2023-09-06T03:10:51.945Z,17.87
2023-09-06T03:11:51.924Z,17.82
2023-09-06T03:12:51.936Z,17.84
2023-09-06T03:13:51.822Z,17.81
2023-09-06T03:14:51.826Z,17.92
2023-09-06T03:15:51.867Z,18.00
2023-09-06T03:16:51.855Z,18.05
2023-09-06T03:17:51.839Z,18.07
2023-09-06T03:18:51.772Z,18.05
2023-09-06T03:19:51.757Z,18.02
2023-09-06T03:20:51.747Z,18.05
2023-09-06T03:21:51.751Z,18.10
2023-09-06T03:22:51.718Z,18.07
2023-09-06T03:23:51.730Z,18.07
2023-09-06T03:24:51.688Z,18.10
2023-09-06T03:25:51.728Z,18.07
2023-09-06T03:26:51.681Z,18.05
2023-09-06T03:27:51.649Z,18.08
2023-09-06T03:28:51.656Z,18.07
2023-09-06T03:29:51.709Z,18.05
2023-09-06T03:30:51.623Z,18.11
2023-09-06T03:31:51.661Z,18.14
2023-09-06T03:32:51.678Z,18.07
2023-09-06T03:33:51.571Z,18.03
2023-09-06T03:34:51.574Z,18.03
2023-09-06T03:35:51.563Z,18.00
2023-09-06T03:36:51.523Z,18.00
2023-09-06T03:37:51.552Z,17.97
2023-09-06T03:38:51.514Z,17.95
2023-09-06T03:39:51.503Z,17.96
2023-09-06T03:40:51.530Z,17.99
2023-09-06T03:41:51.502Z,17.97
2023-09-06T03:42:51.451Z,17.96
2023-09-06T03:43:51.559Z,17.93
2023-09-06T03:44:51.434Z,17.90
2023-09-06T03:45:51.431Z,17.95
2023-09-06T03:46:51.528Z,17.92
2023-09-06T03:47:51.615Z,17.89
2023-09-06T03:48:51.495Z,17.89
2023-09-06T03:49:51.417Z,17.81
2023-09-06T03:50:51.367Z,17.79
2023-09-06T03:51:51.346Z,17.77
2023-09-06T03:52:51.464Z,17.74
2023-09-06T03:53:51.319Z,17.71
2023-09-06T03:54:51.309Z,17.70
2023-09-06T03:55:51.368Z,17.68
2023-09-06T03:56:51.282Z,17.72
2023-09-06T03:57:51.273Z,17.68
2023-09-06T03:58:51.269Z,17.72
2023-09-06T03:59:51.262Z,17.66
2023-09-06T04:00:51.285Z,17.68
2023-09-06T04:01:51.373Z,17.66
2023-09-06T04:02:51.417Z,17.66
2023-09-06T04:03:51.281Z,17.66
2023-09-06T04:04:51.274Z,17.66
2023-09-06T04:05:51.139Z,17.71
2023-09-06T04:06:51.159Z,17.70
2023-09-06T04:07:51.176Z,17.68
2023-09-06T04:08:51.251Z,17.64
2023-09-06T04:09:51.092Z,17.70
2023-09-06T04:10:51.075Z,17.71
2023-09-06T04:11:51.062Z,17.77
2023-09-06T04:12:51.133Z,17.77
2023-09-06T04:13:51.087Z,17.77
2023-09-06T04:14:51.075Z,17.75
2023-09-06T04:15:50.997Z,17.78
2023-09-06T04:16:51.059Z,17.82
2023-09-06T04:17:51.077Z,17.86
2023-09-06T04:18:51.020Z,17.86
2023-09-06T04:19:50.947Z,17.90
2023-09-06T04:20:50.947Z,17.92
2023-09-06T04:21:50.919Z,17.92
2023-09-06T04:22:50.964Z,17.93
2023-09-06T04:23:50.889Z,17.93
2023-09-06T04:24:50.884Z,18.02
2023-09-06T04:25:50.927Z,18.03
2023-09-06T04:26:50.849Z,18.11
2023-09-06T04:27:50.853Z,18.11
2023-09-06T04:28:50.856Z,18.14
2023-09-06T04:29:50.832Z,18.12
2023-09-06T04:30:50.880Z,18.11
2023-09-06T04:31:50.810Z,18.14
2023-09-06T04:32:50.824Z,18.07
2023-09-06T04:33:50.772Z,18.00
2023-09-06T04:34:50.788Z,17.97
2023-09-06T04:35:50.751Z,17.92
2023-09-06T04:36:50.724Z,17.79
2023-09-06T04:37:50.859Z,17.70
2023-09-06T04:38:50.723Z,17.66
2023-09-06T04:39:50.719Z,17.64
2023-09-06T04:40:50.716Z,17.59
2023-09-06T04:41:50.665Z,17.55
2023-09-06T04:42:50.663Z,17.54
2023-09-06T04:43:50.706Z,17.51
2023-09-06T04:44:50.623Z,17.52
2023-09-06T04:45:50.649Z,17.51
2023-09-06T04:46:50.720Z,17.48
2023-09-06T04:47:50.622Z,17.48
2023-09-06T04:48:50.605Z,17.48
2023-09-06T04:49:50.559Z,17.51
2023-09-06T04:50:50.593Z,17.54
2023-09-06T04:51:50.545Z,17.52
2023-09-06T04:52:50.545Z,17.51
2023-09-06T04:53:50.512Z,17.54
2023-09-06T04:54:50.503Z,17.51
2023-09-06T04:55:50.860Z,17.52
2023-09-06T04:56:50.520Z,17.51
2023-09-06T04:57:50.525Z,17.56
2023-09-06T04:58:50.565Z,17.59
2023-09-06T04:59:50.460Z,17.63
2023-09-06T05:00:50.531Z,17.64
2023-09-06T05:01:50.419Z,17.68
2023-09-06T05:02:50.480Z,17.68
2023-09-06T05:03:50.469Z,17.74
2023-09-06T05:04:50.382Z,17.78
2023-09-06T05:05:50.524Z,17.75
2023-09-06T05:06:50.350Z,17.75
2023-09-06T05:07:50.353Z,17.77
2023-09-06T05:08:50.318Z,17.75
2023-09-06T05:09:50.326Z,17.77
2023-09-06T05:10:50.304Z,17.81
2023-09-06T05:11:50.280Z,17.87
2023-09-06T05:12:50.277Z,17.95
2023-09-06T05:13:50.342Z,17.95
2023-09-06T05:14:50.265Z,17.99
2023-09-06T05:15:50.263Z,17.97
2023-09-06T05:16:50.276Z,18.00
2023-09-06T05:17:50.260Z,18.00
2023-09-06T05:18:50.711Z,18.00
2023-09-06T05:19:50.287Z,17.97
2023-09-06T05:20:50.164Z,17.97
2023-09-06T05:21:50.197Z,18.02
2023-09-06T05:22:50.210Z,18.07
2023-09-06T05:23:50.137Z,18.11
2023-09-06T05:24:50.168Z,18.18
2023-09-06T05:25:52.215Z,18.23
2023-09-06T05:26:50.106Z,18.26
2023-09-06T05:27:50.149Z,18.32
2023-09-06T05:28:50.399Z,18.32
2023-09-06T05:29:50.146Z,18.32
2023-09-06T05:30:50.080Z,18.32
2023-09-06T05:31:50.096Z,18.30
2023-09-06T05:32:50.061Z,18.32
2023-09-06T05:33:50.040Z,18.30
2023-09-06T05:34:50.005Z,18.36
2023-09-06T05:35:50.010Z,18.27
2023-09-06T05:36:49.977Z,18.30
2023-09-06T05:37:50.098Z,18.35
2023-09-06T05:38:49.948Z,18.39
2023-09-06T05:39:49.978Z,18.39
2023-09-06T05:40:50.033Z,18.42
2023-09-06T05:41:49.909Z,18.42
2023-09-06T05:42:49.896Z,18.48
2023-09-06T05:43:49.920Z,18.51
2023-09-06T05:44:49.860Z,18.55
2023-09-06T05:45:49.896Z,18.60
2023-09-06T05:46:49.965Z,18.57
2023-09-06T05:47:49.923Z,18.60
2023-09-06T05:48:49.831Z,18.65
2023-09-06T05:49:49.879Z,18.70
2023-09-06T05:50:49.792Z,18.73
2023-09-06T05:51:49.787Z,18.82
2023-09-06T05:52:49.796Z,18.88
2023-09-06T05:53:49.806Z,18.92
2023-09-06T05:54:50.749Z,18.90
2023-09-06T05:55:49.767Z,18.99
2023-09-06T05:56:49.718Z,18.99
2023-09-06T05:57:49.729Z,19.06
2023-09-06T05:58:49.696Z,19.10
2023-09-06T05:59:49.789Z,19.08
2023-09-06T06:00:49.690Z,19.11
2023-09-06T06:01:49.735Z,19.14
2023-09-06T06:02:49.880Z,19.14
2023-09-06T06:03:49.695Z,19.16
2023-09-06T06:04:49.648Z,19.25
2023-09-06T06:05:49.614Z,19.22
2023-09-06T06:06:49.593Z,19.29
2023-09-06T06:07:49.577Z,19.33
2023-09-06T06:08:49.641Z,19.37
2023-09-06T06:09:49.551Z,19.36
2023-09-06T06:10:49.639Z,19.44
2023-09-06T06:11:49.533Z,19.55
2023-09-06T06:12:49.507Z,19.56
2023-09-06T06:14:00.338Z,19.66
2023-09-06T06:14:49.502Z,19.68
2023-09-06T06:15:49.539Z,19.74
2023-09-06T06:16:49.516Z,19.91
2023-09-06T06:17:49.499Z,19.87
2023-09-06T06:18:49.441Z,20.03
2023-09-06T06:19:59.348Z,20.02
2023-09-06T06:20:49.451Z,20.05
2023-09-06T06:21:49.435Z,20.17
2023-09-06T06:22:49.404Z,20.31
2023-09-06T06:23:49.389Z,20.33
2023-09-06T06:24:49.395Z,20.41
2023-09-06T06:25:49.385Z,20.38
2023-09-06T06:26:49.342Z,20.52
2023-09-06T06:27:49.469Z,20.61
2023-09-06T06:28:49.597Z,20.69
2023-09-06T06:29:49.375Z,20.76
2023-09-06T06:30:49.303Z,20.84
2023-09-06T06:31:49.376Z,20.82
2023-09-06T06:32:49.324Z,20.80
2023-09-06T06:33:49.267Z,20.94
2023-09-06T06:34:49.243Z,21.09
2023-09-06T06:35:49.266Z,21.10
2023-09-06T06:36:49.221Z,21.29
2023-09-06T06:37:49.207Z,21.19
2023-09-06T06:38:49.229Z,21.19
2023-09-06T06:39:49.163Z,21.10
2023-09-06T06:40:49.214Z,21.13
2023-09-06T06:41:49.153Z,21.16
2023-09-06T06:42:49.143Z,21.24
2023-09-06T06:43:49.190Z,21.25
2023-09-06T06:44:49.126Z,21.35
2023-09-06T06:45:49.157Z,21.34
2023-09-06T06:46:49.140Z,21.47
2023-09-06T06:47:49.150Z,21.37
2023-09-06T06:48:49.060Z,21.43
2023-09-06T06:49:49.077Z,21.43
2023-09-06T06:50:49.042Z,21.52
2023-09-06T06:51:49.054Z,21.54
2023-09-06T06:52:49.049Z,21.54
2023-09-06T06:53:49.022Z,21.88
2023-09-06T06:54:48.995Z,21.99
2023-09-06T06:55:49.001Z,21.90
2023-09-06T06:56:48.964Z,21.80
2023-09-06T06:57:48.948Z,21.79
2023-09-06T06:58:48.964Z,21.82
2023-09-06T06:59:48.927Z,21.83
2023-09-06T07:00:48.920Z,21.99
2023-09-06T07:01:48.993Z,22.07
2023-09-06T07:02:48.947Z,22.06
2023-09-06T07:03:48.904Z,22.09
2023-09-06T07:04:48.936Z,22.15
2023-09-06T07:05:48.880Z,22.30
2023-09-06T07:06:48.891Z,22.36
2023-09-06T07:07:48.946Z,22.27
2023-09-06T07:08:48.823Z,22.28
2023-09-06T07:09:48.809Z,22.25
2023-09-06T07:10:48.848Z,22.37
2023-09-06T07:11:48.790Z,22.24
2023-09-06T07:12:48.769Z,22.18
2023-09-06T07:13:48.810Z,22.18
2023-09-06T07:14:48.750Z,22.15
2023-09-06T07:15:48.801Z,22.22
2023-09-06T07:16:48.997Z,22.27
2023-09-06T07:17:48.821Z,22.51
2023-09-06T07:18:48.700Z,22.75
2023-09-06T07:19:48.743Z,23.04
2023-09-06T07:20:48.675Z,23.19
2023-09-06T07:21:48.666Z,23.23
2023-09-06T07:22:48.740Z,22.95
2023-09-06T07:23:48.689Z,23.01
2023-09-06T07:24:48.635Z,23.01
2023-09-06T07:25:48.841Z,23.13
2023-09-06T07:26:48.616Z,23.20
2023-09-06T07:27:48.586Z,23.16
2023-09-06T07:28:48.635Z,23.04
2023-09-06T07:29:48.569Z,23.07
2023-09-06T07:30:48.547Z,23.19
2023-09-06T07:31:48.549Z,23.33
2023-09-06T07:32:48.565Z,23.46
2023-09-06T07:33:48.582Z,23.65
2023-09-06T07:34:48.509Z,23.53
2023-09-06T07:35:48.508Z,23.54
2023-09-06T07:36:48.480Z,23.70
2023-09-06T07:37:48.705Z,23.93
2023-09-06T07:38:58.996Z,23.73
2023-09-06T07:39:48.430Z,23.63
2023-09-06T07:40:59.005Z,23.97
2023-09-06T07:43:06.407Z,24.34
2023-09-06T07:44:07.312Z,24.52
2023-09-06T07:45:07.369Z,24.35
2023-09-06T07:47:23.061Z,24.12
2023-09-06T07:48:24.223Z,24.21
2023-09-06T07:49:25.215Z,24.13
2023-09-06T07:50:23.879Z,23.95
2023-09-06T07:51:23.895Z,24.09
2023-09-06T07:52:23.856Z,24.15
2023-09-06T07:53:23.854Z,24.32
2023-09-06T07:54:30.362Z,24.49
2023-09-06T07:55:23.817Z,24.57
2023-09-06T07:56:23.851Z,24.32
2023-09-06T07:57:23.789Z,24.53
2023-09-06T07:58:23.828Z,24.81
2023-09-06T07:59:23.904Z,24.81
2023-09-06T08:00:23.775Z,24.49
2023-09-06T08:01:23.760Z,24.65
2023-09-06T08:02:23.721Z,24.58
2023-09-06T08:03:23.746Z,25.03
2023-09-06T08:04:23.771Z,25.36
2023-09-06T08:05:23.732Z,25.45
2023-09-06T08:06:23.773Z,24.93
2023-09-06T08:07:23.698Z,24.99
2023-09-06T08:08:23.678Z,24.93
2023-09-06T08:09:23.656Z,25.14
2023-09-06T08:10:23.635Z,25.42
2023-09-06T08:11:23.624Z,25.60
2023-09-06T08:12:23.678Z,25.75
2023-09-06T08:13:23.609Z,25.64
2023-09-06T08:14:23.655Z,25.69
2023-09-06T08:15:25.366Z,25.77
2023-09-06T08:16:25.302Z,25.75
2023-09-06T08:17:43.180Z,25.91
2023-09-06T08:18:33.900Z,25.67
2023-09-06T08:19:22.508Z,25.90
2023-09-06T08:20:23.582Z,25.42
2023-09-06T08:21:24.293Z,25.50
2023-09-06T08:22:39.206Z,25.47
2023-09-06T08:23:23.487Z,25.58
2023-09-06T08:24:23.495Z,26.20
2023-09-06T08:25:23.453Z,26.40
2023-09-06T08:26:23.505Z,26.07
2023-09-06T08:27:25.011Z,25.79
2023-09-06T08:28:23.444Z,25.79
2023-09-06T08:29:23.480Z,25.69
2023-09-06T08:30:23.513Z,25.65
2023-09-06T08:31:23.469Z,25.77
2023-09-06T08:32:24.208Z,26.12
2023-09-06T08:33:23.446Z,26.17
2023-09-06T08:34:23.418Z,26.32
2023-09-06T08:35:24.022Z,26.45
2023-09-06T08:36:23.313Z,26.52
2023-09-06T08:37:27.275Z,26.06
2023-09-06T08:39:08.444Z,26.37
2023-09-06T08:39:47.732Z,26.02
2023-09-06T08:40:25.083Z,26.02
2023-09-06T08:41:26.268Z,26.12
2023-09-06T08:42:44.728Z,26.21
2023-09-06T08:43:38.979Z,26.45
2023-09-06T08:44:24.174Z,26.26
2023-09-06T08:45:26.387Z,26.39
2023-09-06T08:46:23.202Z,26.67
2023-09-06T08:47:39.642Z,26.47
2023-09-06T08:48:25.702Z,26.52
2023-09-06T08:49:25.716Z,26.70
2023-09-06T08:50:24.339Z,26.82
2023-09-06T08:51:23.742Z,26.75
2023-09-06T08:52:23.814Z,26.76
2023-09-06T08:54:33.469Z,26.88
2023-09-06T08:56:08.940Z,26.40
2023-09-06T08:57:10.008Z,26.52
2023-09-06T08:58:16.815Z,26.87
2023-09-06T08:59:13.723Z,26.84
2023-09-06T09:00:09.880Z,26.84
2023-09-06T09:01:11.791Z,26.87
2023-09-06T09:02:09.866Z,26.84
2023-09-06T09:03:09.975Z,26.88
2023-09-06T09:04:09.944Z,27.00
2023-09-06T09:05:18.029Z,26.95
2023-09-06T09:06:09.823Z,26.99
2023-09-06T09:07:09.788Z,27.36
2023-09-06T09:08:09.789Z,27.51
2023-09-06T09:09:09.821Z,27.24
2023-09-06T09:10:09.854Z,27.40
2023-09-06T09:11:09.748Z,27.67
2023-09-06T09:12:09.737Z,27.62
2023-09-06T09:13:09.811Z,27.63
2023-09-06T09:14:09.714Z,27.99
2023-09-06T09:15:22.678Z,28.27
2023-09-06T09:16:09.866Z,28.41
2023-09-06T09:17:09.845Z,28.30
2023-09-06T09:18:10.014Z,28.11
2023-09-06T09:19:09.731Z,28.31
2023-09-06T09:20:09.635Z,28.39
2023-09-06T09:21:10.132Z,28.12
2023-09-06T09:22:09.711Z,28.17
2023-09-06T09:23:10.643Z,28.48
2023-09-06T09:24:10.086Z,28.33
2023-09-06T09:25:09.644Z,28.09
2023-09-06T09:26:09.592Z,27.82
2023-09-06T09:27:10.750Z,28.14
2023-09-06T09:28:09.606Z,28.15
2023-09-06T09:29:10.599Z,28.17
2023-09-06T09:30:38.879Z,28.30
2023-09-06T09:31:10.185Z,28.59
2023-09-06T09:32:11.290Z,28.52
2023-09-06T09:33:09.670Z,28.56
2023-09-06T09:34:34.321Z,28.31
2023-09-06T09:35:09.588Z,28.31
2023-09-06T09:36:09.562Z,28.39
2023-09-06T09:37:09.457Z,28.25
2023-09-06T09:39:24.113Z,28.17
2023-09-06T09:40:34.502Z,28.12
2023-09-06T09:41:59.509Z,28.37
2023-09-06T09:43:05.607Z,28.85
2023-09-06T09:43:28.771Z,28.90
2023-09-06T09:44:21.363Z,28.51
2023-09-06T09:45:21.379Z,28.40
2023-09-06T09:46:23.879Z,28.03
2023-09-06T09:47:43.946Z,28.07
2023-09-06T09:48:21.347Z,28.31
2023-09-06T09:49:21.527Z,28.64
2023-09-06T09:50:21.343Z,28.81
2023-09-06T09:51:21.539Z,29.21
2023-09-06T09:52:24.789Z,28.78
2023-09-06T09:53:22.593Z,28.19
2023-09-06T09:54:21.939Z,28.52
2023-09-06T09:55:32.827Z,28.92
2023-09-06T09:56:21.213Z,29.05
2023-09-06T09:57:24.383Z,29.04
2023-09-06T09:58:21.241Z,29.09
2023-09-06T09:59:21.902Z,29.48
2023-09-06T10:00:48.012Z,29.53
2023-09-06T10:01:53.042Z,29.33
2023-09-06T10:02:31.342Z,29.27
2023-09-06T10:03:22.511Z,28.95
2023-09-06T10:04:57.608Z,29.14
2023-09-06T10:05:21.977Z,29.11
2023-09-06T10:06:21.128Z,29.08
2023-09-06T10:07:22.047Z,29.33
2023-09-06T10:08:21.124Z,29.36
2023-09-06T10:09:21.052Z,29.52
2023-09-06T10:10:22.512Z,29.68
2023-09-06T10:11:21.037Z,29.52
2023-09-06T10:12:22.853Z,30.02
2023-09-06T10:13:21.020Z,30.45
2023-09-06T10:30:31.358Z,30.45
2023-09-06T10:30:38.057Z,29.36
2023-09-06T10:31:45.413Z,29.60
2023-09-06T10:32:36.715Z,29.52
2023-09-06T10:33:36.693Z,29.52
2023-09-06T10:34:36.733Z,29.52
2023-09-06T10:35:36.739Z,29.57
2023-09-06T10:36:36.724Z,29.57
2023-09-06T10:37:38.180Z,29.80
2023-09-06T10:38:46.509Z,29.87
2023-09-06T10:39:36.614Z,29.79
2023-09-06T10:40:36.611Z,29.95
2023-09-06T10:41:36.635Z,30.19
2023-09-06T10:42:37.274Z,30.27
2023-09-06T10:43:38.307Z,30.29
2023-09-06T10:44:38.311Z,29.97
2023-09-06T10:45:36.557Z,29.92
2023-09-06T10:46:36.735Z,30.07
2023-09-06T10:47:42.857Z,30.34
2023-09-06T10:49:57.126Z,30.45
2023-09-06T10:50:50.502Z,30.26
2023-09-06T10:51:43.500Z,30.32
2023-09-06T10:52:48.117Z,30.35
2023-09-06T10:53:44.623Z,30.67
2023-09-06T10:54:43.691Z,30.42
2023-09-06T10:55:57.619Z,30.38
2023-09-06T11:02:28.225Z,30.24
2023-09-06T11:02:58.473Z,30.79
2023-09-06T11:04:03.302Z,30.69
2023-09-06T11:07:04.076Z,31.46
2023-09-06T11:07:58.002Z,31.80
2023-09-06T11:08:47.216Z,32.32
2023-09-06T11:09:54.543Z,32.89
2023-09-06T11:15:29.991Z,30.02
2023-09-06T11:16:35.350Z,30.08
2023-09-06T11:28:04.657Z,31.99
2023-09-06T11:30:12.397Z,31.51
2023-09-06T11:30:20.407Z,31.50
2023-09-06T11:31:32.775Z,31.99
2023-09-06T11:32:18.382Z,31.25
2023-09-06T11:33:17.824Z,31.23
2023-09-06T11:34:21.424Z,31.50
2023-09-06T11:35:22.800Z,31.68
2023-09-06T11:36:47.406Z,31.28
2023-09-06T11:37:31.571Z,30.82
2023-09-06T11:38:43.040Z,31.32
2023-09-06T11:39:56.485Z,31.57
2023-09-06T11:53:41.917Z,31.80
2023-09-06T11:54:40.971Z,31.89
2023-09-06T12:02:41.360Z,32.10
2023-09-06T12:03:23.144Z,31.80
2023-09-06T12:04:37.247Z,31.92
2023-09-06T12:05:19.777Z,32.50
2023-09-06T12:06:05.314Z,33.28
2023-09-06T12:07:05.081Z,33.29
2023-09-06T12:08:05.746Z,32.92
2023-09-06T12:09:05.994Z,32.82
2023-09-06T12:10:07.384Z,33.18
2023-09-06T12:11:05.873Z,33.88
2023-09-06T12:12:06.352Z,34.70
2023-09-06T12:13:07.709Z,34.87
2023-09-06T12:16:28.724Z,32.35
2023-09-06T12:17:52.293Z,31.93
2023-09-06T12:20:46.912Z,33.19
2023-09-06T12:21:46.875Z,32.82
2023-09-06T12:22:52.007Z,32.74
2023-09-06T12:23:49.544Z,32.50
2023-09-06T12:25:14.389Z,32.62
2023-09-06T12:25:51.865Z,32.89
2023-09-06T12:26:47.800Z,33.04
2023-09-06T12:27:49.368Z,32.63
2023-09-06T12:28:49.341Z,32.33
2023-09-06T12:29:47.664Z,32.00
2023-09-06T12:30:46.744Z,31.92
2023-09-06T12:31:53.014Z,31.58
2023-09-06T12:32:47.561Z,31.84
2023-09-06T12:33:46.883Z,31.95
2023-09-06T12:34:50.008Z,31.95
2023-09-06T12:35:46.658Z,32.33
2023-09-06T12:36:47.507Z,32.40
2023-09-06T12:37:46.604Z,32.69
2023-09-06T12:38:50.495Z,33.19
2023-09-06T12:39:49.354Z,33.53
2023-09-06T12:43:02.430Z,31.75
2023-09-06T12:44:02.096Z,31.91
2023-09-06T12:45:02.758Z,32.28
2023-09-06T12:46:09.896Z,32.19
2023-09-06T12:47:03.766Z,32.25
2023-09-06T12:50:14.045Z,31.91
2023-09-06T12:50:19.444Z,32.06
2023-09-06T12:51:46.047Z,32.37
2023-09-06T12:52:28.845Z,32.19
2023-09-06T12:53:36.433Z,31.89
2023-09-06T12:55:00.728Z,31.58
2023-09-06T12:55:19.501Z,31.43
2023-09-06T12:56:55.960Z,31.80
2023-09-06T12:57:24.678Z,32.25
2023-09-06T12:58:45.919Z,32.69
2023-09-06T12:59:20.537Z,32.21
2023-09-06T13:00:19.354Z,32.01
2023-09-06T13:01:19.471Z,32.40
2023-09-06T13:02:19.442Z,32.43
2023-09-06T13:03:19.338Z,31.80
2023-09-06T13:04:19.422Z,31.96
2023-09-06T13:05:20.417Z,31.93
2023-09-06T13:06:36.775Z,32.13
2023-09-06T13:09:52.520Z,32.55
2023-09-06T13:10:34.625Z,32.18
2023-09-06T13:11:00.807Z,32.56
2023-09-06T13:11:58.707Z,32.96
2023-09-06T13:12:58.437Z,32.85
2023-09-06T13:14:54.977Z,32.29
2023-09-06T13:15:01.992Z,32.32
2023-09-06T13:17:04.440Z,32.45
2023-09-06T13:17:35.100Z,32.65
2023-09-06T13:18:21.358Z,32.52
2023-09-06T13:19:10.317Z,32.67
2023-09-06T13:20:12.567Z,32.84
2023-09-06T13:21:09.771Z,33.18
2023-09-06T13:22:50.519Z,33.47
2023-09-06T13:27:13.923Z,32.14
2023-09-06T13:28:15.454Z,32.15
2023-09-06T13:29:25.274Z,32.06
2023-09-06T13:33:40.019Z,32.85
2023-09-06T13:34:47.539Z,32.87
2023-09-06T13:35:55.696Z,32.78
2023-09-06T13:36:53.561Z,32.79
2023-09-06T13:40:05.955Z,32.69
2023-09-06T13:41:07.005Z,32.85
2023-09-06T13:42:07.659Z,32.79
2023-09-06T13:45:22.261Z,33.35
2023-09-06T13:48:37.339Z,32.45
2023-09-06T13:51:53.715Z,32.84
2023-09-06T13:53:02.678Z,32.77
2023-09-06T13:56:25.525Z,33.22
2023-09-06T13:57:39.145Z,33.31
2023-09-06T13:58:31.493Z,33.37
2023-09-06T13:59:28.201Z,33.21
2023-09-06T14:00:29.282Z,33.32
2023-09-06T14:01:31.787Z,33.49
2023-09-06T14:05:02.805Z,32.41
2023-09-06T14:06:28.046Z,32.50
2023-09-06T14:07:20.532Z,32.82
2023-09-06T14:08:04.324Z,32.93
2023-09-06T14:08:59.120Z,32.82
2023-09-06T14:10:23.469Z,32.26
2023-09-06T14:11:00.415Z,32.40
2023-09-06T14:15:29.600Z,33.19
2023-09-06T14:16:19.224Z,33.73
2023-09-06T14:30:18.515Z,33.16
2023-09-06T14:31:07.206Z,32.85
2023-09-06T14:32:37.992Z,32.79
2023-09-06T14:33:32.048Z,32.97
2023-09-06T14:34:08.647Z,33.47
2023-09-06T14:35:07.048Z,33.03
2023-09-06T14:36:11.864Z,32.85
2023-09-06T14:37:07.061Z,33.34
2023-09-06T14:38:26.732Z,33.56
2023-09-06T14:42:21.675Z,33.53
2023-09-06T14:43:22.837Z,33.91
2023-09-06T14:47:23.028Z,33.68
2023-09-06T14:49:44.603Z,33.45
2023-09-06T14:52:18.829Z,33.91
2023-09-06T14:53:18.919Z,33.73
2023-09-06T14:54:17.329Z,33.51